sensor_id;sensor_type;location;lat;lon;timestamp;P1;durP1;ratioP1;P2;durP2;ratioP2
72085;SDS011;64750;52.134;5.424;2023-04-03T00:00:17;1.05;;;0.73;;
72085;SDS011;64750;52.134;5.424;2023-04-03T00:02:44;1.33;;;0.60;;
72085;SDS011;64750;52.134;5.424;2023-04-03T00:05:10;1.27;;;0.60;;
72085;SDS011;64750;52.134;5.424;2023-04-03T00:07:37;1.17;;;0.70;;
72085;SDS011;64750;52.134;5.424;2023-04-03T00:10:03;1.10;;;0.93;;
72085;SDS011;64750;52.134;5.424;2023-04-03T00:12:30;1.67;;;0.70;;
72085;SDS011;64750;52.134;5.424;2023-04-03T00:14:57;1.93;;;1.10;;
72085;SDS011;64750;52.134;5.424;2023-04-03T00:17:23;0.98;;;0.82;;
72085;SDS011;64750;52.134;5.424;2023-04-03T00:19:49;2.97;;;0.70;;
72085;SDS011;64750;52.134;5.424;2023-04-03T00:22:16;0.95;;;0.70;;
72085;SDS011;64750;52.134;5.424;2023-04-03T00:24:42;0.77;;;0.50;;
72085;SDS011;64750;52.134;5.424;2023-04-03T00:27:09;3.13;;;0.90;;
72085;SDS011;64750;52.134;5.424;2023-04-03T00:29:35;3.33;;;0.73;;
72085;SDS011;64750;52.134;5.424;2023-04-03T00:32:01;2.03;;;0.70;;
72085;SDS011;64750;52.134;5.424;2023-04-03T00:34:28;1.30;;;1.08;;
72085;SDS011;64750;52.134;5.424;2023-04-03T00:36:54;1.35;;;0.70;;
72085;SDS011;64750;52.134;5.424;2023-04-03T00:39:21;1.30;;;0.80;;
72085;SDS011;64750;52.134;5.424;2023-04-03T00:41:47;1.52;;;0.70;;
72085;SDS011;64750;52.134;5.424;2023-04-03T00:46:59;1.63;;;1.00;;
72085;SDS011;64750;52.134;5.424;2023-04-03T00:49:26;2.97;;;0.93;;
72085;SDS011;64750;52.134;5.424;2023-04-03T00:51:53;1.23;;;0.80;;
72085;SDS011;64750;52.134;5.424;2023-04-03T00:54:22;3.67;;;0.80;;
72085;SDS011;64750;52.134;5.424;2023-04-03T00:56:49;0.82;;;0.80;;
72085;SDS011;64750;52.134;5.424;2023-04-03T00:59:21;1.10;;;0.73;;
72085;SDS011;64750;52.134;5.424;2023-04-03T01:01:52;1.20;;;0.82;;
72085;SDS011;64750;52.134;5.424;2023-04-03T01:04:30;2.00;;;0.83;;
72085;SDS011;64750;52.134;5.424;2023-04-03T01:07:19;3.13;;;0.90;;
72085;SDS011;64750;52.134;5.424;2023-04-03T01:09:46;1.77;;;0.90;;
72085;SDS011;64750;52.134;5.424;2023-04-03T01:14:44;1.10;;;0.70;;
72085;SDS011;64750;52.134;5.424;2023-04-03T01:19:57;1.95;;;0.95;;
72085;SDS011;64750;52.134;5.424;2023-04-03T01:23:32;1.65;;;0.93;;
72085;SDS011;64750;52.134;5.424;2023-04-03T01:25:41;0.75;;;0.60;;
72085;SDS011;64750;52.134;5.424;2023-04-03T01:28:17;1.52;;;1.02;;
72085;SDS011;64750;52.134;5.424;2023-04-03T01:31:00;3.40;;;0.80;;
72085;SDS011;64750;52.134;5.424;2023-04-03T01:33:31;1.42;;;0.82;;
72085;SDS011;64750;52.134;5.424;2023-04-03T01:35:57;2.38;;;1.20;;
72085;SDS011;64750;52.134;5.424;2023-04-03T01:38:24;1.45;;;1.00;;
72085;SDS011;64750;52.134;5.424;2023-04-03T01:40:51;1.00;;;0.70;;
72085;SDS011;64750;52.134;5.424;2023-04-03T01:43:17;0.63;;;0.60;;
72085;SDS011;64750;52.134;5.424;2023-04-03T01:45:44;1.80;;;0.70;;
72085;SDS011;64750;52.134;5.424;2023-04-03T01:48:10;2.00;;;0.98;;
72085;SDS011;64750;52.134;5.424;2023-04-03T01:50:37;0.93;;;0.80;;
72085;SDS011;64750;52.134;5.424;2023-04-03T01:53:04;0.80;;;0.70;;
72085;SDS011;64750;52.134;5.424;2023-04-03T01:55:30;1.90;;;1.00;;
72085;SDS011;64750;52.134;5.424;2023-04-03T01:57:56;1.98;;;1.85;;
72085;SDS011;64750;52.134;5.424;2023-04-03T02:00:23;1.63;;;0.80;;
72085;SDS011;64750;52.134;5.424;2023-04-03T02:02:49;4.55;;;0.85;;
72085;SDS011;64750;52.134;5.424;2023-04-03T02:05:16;1.58;;;0.93;;
72085;SDS011;64750;52.134;5.424;2023-04-03T02:07:42;1.50;;;0.80;;
72085;SDS011;64750;52.134;5.424;2023-04-03T02:10:09;2.10;;;0.80;;
72085;SDS011;64750;52.134;5.424;2023-04-03T02:12:36;1.45;;;0.80;;
72085;SDS011;64750;52.134;5.424;2023-04-03T02:15:02;1.00;;;0.77;;
72085;SDS011;64750;52.134;5.424;2023-04-03T02:17:29;0.90;;;0.77;;
72085;SDS011;64750;52.134;5.424;2023-04-03T02:19:55;1.03;;;0.80;;
72085;SDS011;64750;52.134;5.424;2023-04-03T02:22:22;3.03;;;1.02;;
72085;SDS011;64750;52.134;5.424;2023-04-03T02:24:48;1.27;;;1.08;;
72085;SDS011;64750;52.134;5.424;2023-04-03T02:27:15;1.45;;;1.02;;
72085;SDS011;64750;52.134;5.424;2023-04-03T02:29:42;2.83;;;1.20;;
72085;SDS011;64750;52.134;5.424;2023-04-03T02:32:08;1.37;;;0.83;;
72085;SDS011;64750;52.134;5.424;2023-04-03T02:34:34;1.30;;;0.75;;
72085;SDS011;64750;52.134;5.424;2023-04-03T02:37:01;1.80;;;0.90;;
72085;SDS011;64750;52.134;5.424;2023-04-03T02:39:27;1.08;;;0.88;;
72085;SDS011;64750;52.134;5.424;2023-04-03T02:41:54;2.22;;;0.90;;
72085;SDS011;64750;52.134;5.424;2023-04-03T02:44:20;2.47;;;0.80;;
72085;SDS011;64750;52.134;5.424;2023-04-03T02:46:47;3.83;;;1.38;;
72085;SDS011;64750;52.134;5.424;2023-04-03T02:49:13;2.75;;;0.98;;
72085;SDS011;64750;52.134;5.424;2023-04-03T02:51:39;1.73;;;1.00;;
72085;SDS011;64750;52.134;5.424;2023-04-03T02:54:06;1.52;;;0.82;;
72085;SDS011;64750;52.134;5.424;2023-04-03T02:56:33;2.30;;;1.03;;
72085;SDS011;64750;52.134;5.424;2023-04-03T02:58:59;4.47;;;1.00;;
72085;SDS011;64750;52.134;5.424;2023-04-03T03:01:26;2.22;;;0.82;;
72085;SDS011;64750;52.134;5.424;2023-04-03T03:03:54;3.97;;;1.00;;
72085;SDS011;64750;52.134;5.424;2023-04-03T03:06:21;1.63;;;0.90;;
72085;SDS011;64750;52.134;5.424;2023-04-03T03:08:47;3.03;;;1.23;;
72085;SDS011;64750;52.134;5.424;2023-04-03T03:11:13;1.92;;;0.80;;
72085;SDS011;64750;52.134;5.424;2023-04-03T03:13:40;1.13;;;0.95;;
72085;SDS011;64750;52.134;5.424;2023-04-03T03:16:07;3.97;;;1.20;;
72085;SDS011;64750;52.134;5.424;2023-04-03T03:18:34;2.65;;;1.13;;
72085;SDS011;64750;52.134;5.424;2023-04-03T03:21:01;5.50;;;0.90;;
72085;SDS011;64750;52.134;5.424;2023-04-03T03:23:29;2.25;;;1.67;;
72085;SDS011;64750;52.134;5.424;2023-04-03T03:25:57;1.75;;;1.20;;
72085;SDS011;64750;52.134;5.424;2023-04-03T03:28:29;1.95;;;1.08;;
72085;SDS011;64750;52.134;5.424;2023-04-03T03:30:56;1.02;;;0.82;;
72085;SDS011;64750;52.134;5.424;2023-04-03T03:33:24;4.73;;;1.20;;
72085;SDS011;64750;52.134;5.424;2023-04-03T03:35:51;1.75;;;0.90;;
72085;SDS011;64750;52.134;5.424;2023-04-03T03:38:18;3.35;;;1.40;;
72085;SDS011;64750;52.134;5.424;2023-04-03T03:40:49;4.00;;;1.00;;
72085;SDS011;64750;52.134;5.424;2023-04-03T03:43:16;1.25;;;0.98;;
72085;SDS011;64750;52.134;5.424;2023-04-03T03:45:43;2.03;;;1.00;;
72085;SDS011;64750;52.134;5.424;2023-04-03T03:48:11;2.60;;;1.00;;
72085;SDS011;64750;52.134;5.424;2023-04-03T03:50:38;3.45;;;1.02;;
72085;SDS011;64750;52.134;5.424;2023-04-03T03:53:04;1.48;;;0.95;;
72085;SDS011;64750;52.134;5.424;2023-04-03T03:55:31;2.22;;;1.15;;
72085;SDS011;64750;52.134;5.424;2023-04-03T03:57:57;1.70;;;1.03;;
72085;SDS011;64750;52.134;5.424;2023-04-03T04:00:24;1.73;;;1.05;;
72085;SDS011;64750;52.134;5.424;2023-04-03T04:02:50;2.80;;;1.02;;
72085;SDS011;64750;52.134;5.424;2023-04-03T04:05:17;1.67;;;1.00;;
72085;SDS011;64750;52.134;5.424;2023-04-03T04:07:44;1.65;;;1.30;;
72085;SDS011;64750;52.134;5.424;2023-04-03T04:10:10;4.60;;;1.07;;
72085;SDS011;64750;52.134;5.424;2023-04-03T04:12:37;3.20;;;1.17;;
72085;SDS011;64750;52.134;5.424;2023-04-03T04:15:03;1.95;;;1.23;;
72085;SDS011;64750;52.134;5.424;2023-04-03T04:17:30;3.78;;;1.27;;
72085;SDS011;64750;52.134;5.424;2023-04-03T04:19:56;2.35;;;1.08;;
72085;SDS011;64750;52.134;5.424;2023-04-03T04:22:23;1.57;;;1.03;;
72085;SDS011;64750;52.134;5.424;2023-04-03T04:24:49;2.20;;;1.30;;
72085;SDS011;64750;52.134;5.424;2023-04-03T04:27:15;1.88;;;0.95;;
72085;SDS011;64750;52.134;5.424;2023-04-03T04:29:42;3.60;;;1.30;;
72085;SDS011;64750;52.134;5.424;2023-04-03T04:32:08;1.30;;;1.20;;
72085;SDS011;64750;52.134;5.424;2023-04-03T04:34:35;4.47;;;1.30;;
72085;SDS011;64750;52.134;5.424;2023-04-03T04:37:01;2.00;;;1.10;;
72085;SDS011;64750;52.134;5.424;2023-04-03T04:39:28;1.58;;;1.10;;
72085;SDS011;64750;52.134;5.424;2023-04-03T04:41:54;1.10;;;0.95;;
72085;SDS011;64750;52.134;5.424;2023-04-03T04:44:21;1.77;;;1.40;;
72085;SDS011;64750;52.134;5.424;2023-04-03T04:46:47;2.23;;;1.17;;
72085;SDS011;64750;52.134;5.424;2023-04-03T04:49:14;2.78;;;1.02;;
72085;SDS011;64750;52.134;5.424;2023-04-03T04:51:40;3.35;;;1.30;;
72085;SDS011;64750;52.134;5.424;2023-04-03T04:54:17;3.20;;;1.00;;
72085;SDS011;64750;52.134;5.424;2023-04-03T04:56:43;1.58;;;0.95;;
72085;SDS011;64750;52.134;5.424;2023-04-03T04:59:10;0.97;;;0.80;;
72085;SDS011;64750;52.134;5.424;2023-04-03T05:01:36;4.25;;;1.17;;
72085;SDS011;64750;52.134;5.424;2023-04-03T05:04:03;3.08;;;1.27;;
72085;SDS011;64750;52.134;5.424;2023-04-03T05:06:29;6.32;;;1.10;;
72085;SDS011;64750;52.134;5.424;2023-04-03T05:08:58;5.50;;;0.93;;
72085;SDS011;64750;52.134;5.424;2023-04-03T05:11:25;3.90;;;1.27;;
72085;SDS011;64750;52.134;5.424;2023-04-03T05:13:51;3.17;;;1.33;;
72085;SDS011;64750;52.134;5.424;2023-04-03T05:16:18;2.10;;;1.48;;
72085;SDS011;64750;52.134;5.424;2023-04-03T05:18:45;3.03;;;1.33;;
72085;SDS011;64750;52.134;5.424;2023-04-03T05:21:11;2.03;;;1.15;;
72085;SDS011;64750;52.134;5.424;2023-04-03T05:23:38;6.70;;;1.60;;
72085;SDS011;64750;52.134;5.424;2023-04-03T05:26:04;2.78;;;1.20;;
72085;SDS011;64750;52.134;5.424;2023-04-03T05:28:31;2.65;;;1.10;;
72085;SDS011;64750;52.134;5.424;2023-04-03T05:30:58;11.40;;;1.38;;
72085;SDS011;64750;52.134;5.424;2023-04-03T05:33:25;2.50;;;1.05;;
72085;SDS011;64750;52.134;5.424;2023-04-03T05:35:52;1.73;;;1.30;;
72085;SDS011;64750;52.134;5.424;2023-04-03T05:38:20;1.60;;;1.20;;
72085;SDS011;64750;52.134;5.424;2023-04-03T05:40:46;6.75;;;1.30;;
72085;SDS011;64750;52.134;5.424;2023-04-03T05:43:13;5.15;;;1.30;;
72085;SDS011;64750;52.134;5.424;2023-04-03T05:45:39;2.30;;;1.10;;
72085;SDS011;64750;52.134;5.424;2023-04-03T05:48:05;1.70;;;1.13;;
72085;SDS011;64750;52.134;5.424;2023-04-03T05:50:32;4.47;;;1.30;;
72085;SDS011;64750;52.134;5.424;2023-04-03T05:52:59;2.55;;;1.35;;
72085;SDS011;64750;52.134;5.424;2023-04-03T05:55:27;1.45;;;1.35;;
72085;SDS011;64750;52.134;5.424;2023-04-03T05:57:54;2.08;;;1.10;;
72085;SDS011;64750;52.134;5.424;2023-04-03T06:00:20;2.20;;;0.90;;
72085;SDS011;64750;52.134;5.424;2023-04-03T06:02:47;1.48;;;1.10;;
72085;SDS011;64750;52.134;5.424;2023-04-03T06:05:13;2.78;;;1.30;;
72085;SDS011;64750;52.134;5.424;2023-04-03T06:07:40;1.25;;;0.80;;
72085;SDS011;64750;52.134;5.424;2023-04-03T06:10:07;2.20;;;1.00;;
72085;SDS011;64750;52.134;5.424;2023-04-03T06:12:34;2.73;;;1.47;;
72085;SDS011;64750;52.134;5.424;2023-04-03T06:15:01;2.33;;;1.13;;
72085;SDS011;64750;52.134;5.424;2023-04-03T06:17:29;0.90;;;0.80;;
72085;SDS011;64750;52.134;5.424;2023-04-03T06:19:56;3.22;;;1.17;;
72085;SDS011;64750;52.134;5.424;2023-04-03T06:22:24;2.38;;;1.50;;
72085;SDS011;64750;52.134;5.424;2023-04-03T06:24:51;2.20;;;1.00;;
72085;SDS011;64750;52.134;5.424;2023-04-03T06:27:18;4.38;;;1.42;;
72085;SDS011;64750;52.134;5.424;2023-04-03T06:29:44;3.47;;;1.33;;
72085;SDS011;64750;52.134;5.424;2023-04-03T06:32:11;2.95;;;1.35;;
72085;SDS011;64750;52.134;5.424;2023-04-03T06:34:37;4.63;;;1.73;;
72085;SDS011;64750;52.134;5.424;2023-04-03T06:37:04;2.20;;;1.40;;
72085;SDS011;64750;52.134;5.424;2023-04-03T06:39:30;2.38;;;1.30;;
72085;SDS011;64750;52.134;5.424;2023-04-03T06:41:57;2.25;;;1.52;;
72085;SDS011;64750;52.134;5.424;2023-04-03T06:44:23;3.38;;;1.00;;
72085;SDS011;64750;52.134;5.424;2023-04-03T06:46:50;2.90;;;1.33;;
72085;SDS011;64750;52.134;5.424;2023-04-03T06:49:17;1.67;;;0.97;;
72085;SDS011;64750;52.134;5.424;2023-04-03T06:51:44;2.60;;;1.30;;
72085;SDS011;64750;52.134;5.424;2023-04-03T06:54:10;1.83;;;1.55;;
72085;SDS011;64750;52.134;5.424;2023-04-03T06:56:37;2.13;;;0.93;;
72085;SDS011;64750;52.134;5.424;2023-04-03T06:59:03;2.55;;;1.42;;
72085;SDS011;64750;52.134;5.424;2023-04-03T07:01:30;1.57;;;1.00;;
72085;SDS011;64750;52.134;5.424;2023-04-03T07:03:57;1.80;;;1.20;;
72085;SDS011;64750;52.134;5.424;2023-04-03T07:06:23;2.75;;;1.20;;
72085;SDS011;64750;52.134;5.424;2023-04-03T07:08:53;1.10;;;1.00;;
72085;SDS011;64750;52.134;5.424;2023-04-03T07:11:20;2.42;;;1.20;;
72085;SDS011;64750;52.134;5.424;2023-04-03T07:13:46;2.70;;;1.00;;
72085;SDS011;64750;52.134;5.424;2023-04-03T07:16:13;2.45;;;1.20;;
72085;SDS011;64750;52.134;5.424;2023-04-03T07:18:39;1.95;;;1.13;;
72085;SDS011;64750;52.134;5.424;2023-04-03T07:21:06;4.03;;;1.20;;
72085;SDS011;64750;52.134;5.424;2023-04-03T07:23:33;4.13;;;1.27;;
72085;SDS011;64750;52.134;5.424;2023-04-03T07:25:59;2.33;;;1.20;;
72085;SDS011;64750;52.134;5.424;2023-04-03T07:28:27;3.63;;;1.15;;
72085;SDS011;64750;52.134;5.424;2023-04-03T07:30:59;2.40;;;1.17;;
72085;SDS011;64750;52.134;5.424;2023-04-03T07:33:27;3.63;;;0.98;;
72085;SDS011;64750;52.134;5.424;2023-04-03T07:35:54;2.03;;;1.10;;
72085;SDS011;64750;52.134;5.424;2023-04-03T07:38:21;4.73;;;1.43;;
72085;SDS011;64750;52.134;5.424;2023-04-03T07:40:48;3.08;;;1.25;;
72085;SDS011;64750;52.134;5.424;2023-04-03T07:43:16;3.47;;;1.10;;
72085;SDS011;64750;52.134;5.424;2023-04-03T07:45:44;3.30;;;1.75;;
72085;SDS011;64750;52.134;5.424;2023-04-03T07:48:11;1.77;;;1.00;;
72085;SDS011;64750;52.134;5.424;2023-04-03T07:50:41;1.63;;;0.80;;
72085;SDS011;64750;52.134;5.424;2023-04-03T07:53:08;2.13;;;1.20;;
72085;SDS011;64750;52.134;5.424;2023-04-03T07:55:35;1.40;;;1.00;;
72085;SDS011;64750;52.134;5.424;2023-04-03T07:58:06;3.33;;;1.05;;
72085;SDS011;64750;52.134;5.424;2023-04-03T08:00:33;1.95;;;1.10;;
72085;SDS011;64750;52.134;5.424;2023-04-03T08:03:00;4.93;;;1.00;;
72085;SDS011;64750;52.134;5.424;2023-04-03T08:05:26;3.75;;;1.20;;
72085;SDS011;64750;52.134;5.424;2023-04-03T08:07:53;1.17;;;0.95;;
72085;SDS011;64750;52.134;5.424;2023-04-03T08:10:19;4.50;;;0.98;;
72085;SDS011;64750;52.134;5.424;2023-04-03T08:12:46;3.10;;;0.95;;
72085;SDS011;64750;52.134;5.424;2023-04-03T08:15:13;2.00;;;0.70;;
72085;SDS011;64750;52.134;5.424;2023-04-03T08:17:40;3.47;;;0.98;;
72085;SDS011;64750;52.134;5.424;2023-04-03T08:20:07;4.05;;;1.08;;
72085;SDS011;64750;52.134;5.424;2023-04-03T08:22:36;3.70;;;1.20;;
72085;SDS011;64750;52.134;5.424;2023-04-03T08:25:02;3.08;;;0.82;;
72085;SDS011;64750;52.134;5.424;2023-04-03T08:27:29;2.40;;;0.77;;
72085;SDS011;64750;52.134;5.424;2023-04-03T08:29:55;5.10;;;1.30;;
72085;SDS011;64750;52.134;5.424;2023-04-03T08:32:23;3.30;;;0.98;;
72085;SDS011;64750;52.134;5.424;2023-04-03T08:34:50;1.98;;;0.75;;
72085;SDS011;64750;52.134;5.424;2023-04-03T08:37:17;4.97;;;1.42;;
72085;SDS011;64750;52.134;5.424;2023-04-03T08:39:43;1.53;;;0.70;;
72085;SDS011;64750;52.134;5.424;2023-04-03T08:47:43;0.68;;;0.63;;
72085;SDS011;64750;52.134;5.424;2023-04-03T08:50:21;1.67;;;0.57;;
72085;SDS011;64750;52.134;5.424;2023-04-03T08:52:56;1.37;;;0.30;;
72085;SDS011;64750;52.134;5.424;2023-04-03T08:55:29;0.93;;;0.40;;
72085;SDS011;64750;52.134;5.424;2023-04-03T08:58:06;2.25;;;0.52;;
72085;SDS011;64750;52.134;5.424;2023-04-03T09:00:44;0.60;;;0.50;;
72085;SDS011;64750;52.134;5.424;2023-04-03T09:03:14;3.03;;;0.50;;
72085;SDS011;64750;52.134;5.424;2023-04-03T09:06:01;4.27;;;0.50;;
72085;SDS011;64750;52.134;5.424;2023-04-03T09:08:32;1.00;;;0.43;;
72085;SDS011;64750;52.134;5.424;2023-04-03T09:11:26;0.95;;;0.50;;
72085;SDS011;64750;52.134;5.424;2023-04-03T09:14:12;0.50;;;0.30;;
72085;SDS011;64750;52.134;5.424;2023-04-03T09:22:02;4.05;;;0.60;;
72085;SDS011;64750;52.134;5.424;2023-04-03T09:24:39;0.95;;;0.50;;
72085;SDS011;64750;52.134;5.424;2023-04-03T09:27:09;0.80;;;0.43;;
72085;SDS011;64750;52.134;5.424;2023-04-03T09:29:39;0.45;;;0.30;;
72085;SDS011;64750;52.134;5.424;2023-04-03T09:35:44;0.60;;;0.30;;
72085;SDS011;64750;52.134;5.424;2023-04-03T09:40:41;0.95;;;0.60;;
72085;SDS011;64750;52.134;5.424;2023-04-03T09:46:15;0.37;;;0.33;;
72085;SDS011;64750;52.134;5.424;2023-04-03T09:48:55;0.30;;;0.22;;
72085;SDS011;64750;52.134;5.424;2023-04-03T09:51:34;0.35;;;0.20;;
72085;SDS011;64750;52.134;5.424;2023-04-03T09:54:03;0.98;;;0.45;;
72085;SDS011;64750;52.134;5.424;2023-04-03T09:57:09;1.02;;;0.40;;
72085;SDS011;64750;52.134;5.424;2023-04-03T09:59:41;3.73;;;2.30;;
72085;SDS011;64750;52.134;5.424;2023-04-03T10:02:24;2.72;;;1.52;;
72085;SDS011;64750;52.134;5.424;2023-04-03T10:05:25;4.07;;;2.38;;
72085;SDS011;64750;52.134;5.424;2023-04-03T10:08:07;6.72;;;3.60;;
72085;SDS011;64750;52.134;5.424;2023-04-03T10:10:40;3.58;;;2.15;;
72085;SDS011;64750;52.134;5.424;2023-04-03T10:13:11;4.63;;;3.00;;
72085;SDS011;64750;52.134;5.424;2023-04-03T10:15:48;1.33;;;0.80;;
72085;SDS011;64750;52.134;5.424;2023-04-03T10:18:27;6.80;;;1.52;;
72085;SDS011;64750;52.134;5.424;2023-04-03T10:21:05;6.57;;;4.75;;
72085;SDS011;64750;52.134;5.424;2023-04-03T10:26:50;4.03;;;2.83;;
72085;SDS011;64750;52.134;5.424;2023-04-03T10:29:43;5.15;;;2.65;;
72085;SDS011;64750;52.134;5.424;2023-04-03T10:35:10;1.10;;;0.80;;
72085;SDS011;64750;52.134;5.424;2023-04-03T10:43:17;1.35;;;0.80;;
72085;SDS011;64750;52.134;5.424;2023-04-03T10:46:11;1.27;;;0.70;;
72085;SDS011;64750;52.134;5.424;2023-04-03T10:48:45;0.85;;;0.30;;
72085;SDS011;64750;52.134;5.424;2023-04-03T10:54:23;1.67;;;1.13;;
72085;SDS011;64750;52.134;5.424;2023-04-03T10:57:02;1.63;;;0.68;;
72085;SDS011;64750;52.134;5.424;2023-04-03T10:59:40;2.03;;;1.63;;
72085;SDS011;64750;52.134;5.424;2023-04-03T11:02:21;1.10;;;0.55;;
72085;SDS011;64750;52.134;5.424;2023-04-03T11:04:54;0.68;;;0.60;;
72085;SDS011;64750;52.134;5.424;2023-04-03T11:07:31;0.50;;;0.37;;
72085;SDS011;64750;52.134;5.424;2023-04-03T11:10:05;1.05;;;0.60;;
72085;SDS011;64750;52.134;5.424;2023-04-03T11:12:45;1.75;;;0.60;;
72085;SDS011;64750;52.134;5.424;2023-04-03T11:15:16;1.52;;;0.40;;
72085;SDS011;64750;52.134;5.424;2023-04-03T11:17:46;1.08;;;0.75;;
72085;SDS011;64750;52.134;5.424;2023-04-03T11:22:57;1.77;;;1.00;;
72085;SDS011;64750;52.134;5.424;2023-04-03T11:25:27;0.70;;;0.32;;
72085;SDS011;64750;52.134;5.424;2023-04-03T11:27:58;0.52;;;0.25;;
72085;SDS011;64750;52.134;5.424;2023-04-03T11:30:31;2.72;;;0.50;;
72085;SDS011;64750;52.134;5.424;2023-04-03T11:35:43;2.95;;;0.70;;
72085;SDS011;64750;52.134;5.424;2023-04-03T11:38:23;0.43;;;0.22;;
72085;SDS011;64750;52.134;5.424;2023-04-03T11:40:53;0.32;;;0.28;;
72085;SDS011;64750;52.134;5.424;2023-04-03T11:43:27;1.55;;;0.60;;
72085;SDS011;64750;52.134;5.424;2023-04-03T11:45:57;3.30;;;0.37;;
72085;SDS011;64750;52.134;5.424;2023-04-03T11:50:55;1.55;;;0.47;;
72085;SDS011;64750;52.134;5.424;2023-04-03T11:56:01;1.63;;;0.77;;
72085;SDS011;64750;52.134;5.424;2023-04-03T11:58:31;1.07;;;0.50;;
72085;SDS011;64750;52.134;5.424;2023-04-03T12:01:09;1.33;;;0.52;;
72085;SDS011;64750;52.134;5.424;2023-04-03T12:13:35;1.92;;;0.32;;
72085;SDS011;64750;52.134;5.424;2023-04-03T12:16:03;2.00;;;0.30;;
72085;SDS011;64750;52.134;5.424;2023-04-03T12:18:40;0.77;;;0.30;;
72085;SDS011;64750;52.134;5.424;2023-04-03T12:29:15;0.80;;;0.50;;
72085;SDS011;64750;52.134;5.424;2023-04-03T12:32:18;0.70;;;0.30;;
72085;SDS011;64750;52.134;5.424;2023-04-03T12:43:42;2.30;;;0.45;;
72085;SDS011;64750;52.134;5.424;2023-04-03T12:46:20;0.77;;;0.40;;
72085;SDS011;64750;52.134;5.424;2023-04-03T12:48:53;0.80;;;0.40;;
72085;SDS011;64750;52.134;5.424;2023-04-03T12:51:22;0.97;;;0.40;;
72085;SDS011;64750;52.134;5.424;2023-04-03T12:54:15;1.48;;;0.50;;
72085;SDS011;64750;52.134;5.424;2023-04-03T12:56:45;1.42;;;0.43;;
72085;SDS011;64750;52.134;5.424;2023-04-03T12:59:13;0.80;;;0.50;;
72085;SDS011;64750;52.134;5.424;2023-04-03T13:01:58;1.85;;;0.40;;
72085;SDS011;64750;52.134;5.424;2023-04-03T13:04:30;0.90;;;0.40;;
72085;SDS011;64750;52.134;5.424;2023-04-03T13:06:58;1.77;;;0.45;;
72085;SDS011;64750;52.134;5.424;2023-04-03T13:09:25;1.05;;;0.40;;
72085;SDS011;64750;52.134;5.424;2023-04-03T13:11:58;1.05;;;0.40;;
72085;SDS011;64750;52.134;5.424;2023-04-03T13:14:27;1.20;;;0.50;;
72085;SDS011;64750;52.134;5.424;2023-04-03T13:16:58;0.83;;;0.50;;
72085;SDS011;64750;52.134;5.424;2023-04-03T13:19:45;1.25;;;0.47;;
72085;SDS011;64750;52.134;5.424;2023-04-03T13:25:10;1.45;;;0.40;;
72085;SDS011;64750;52.134;5.424;2023-04-03T13:27:41;0.90;;;0.60;;
72085;SDS011;64750;52.134;5.424;2023-04-03T13:30:20;0.63;;;0.40;;
72085;SDS011;64750;52.134;5.424;2023-04-03T13:32:50;0.60;;;0.40;;
72085;SDS011;64750;52.134;5.424;2023-04-03T13:35:24;0.90;;;0.40;;
72085;SDS011;64750;52.134;5.424;2023-04-03T13:37:57;0.50;;;0.38;;
72085;SDS011;64750;52.134;5.424;2023-04-03T13:40:25;1.80;;;0.60;;
72085;SDS011;64750;52.134;5.424;2023-04-03T13:43:18;1.47;;;0.60;;
72085;SDS011;64750;52.134;5.424;2023-04-03T13:46:04;1.88;;;0.43;;
72085;SDS011;64750;52.134;5.424;2023-04-03T13:48:52;1.52;;;0.55;;
72085;SDS011;64750;52.134;5.424;2023-04-03T13:51:27;1.20;;;0.35;;
72085;SDS011;64750;52.134;5.424;2023-04-03T13:53:57;0.93;;;0.50;;
72085;SDS011;64750;52.134;5.424;2023-04-03T13:56:35;1.03;;;0.40;;
72085;SDS011;64750;52.134;5.424;2023-04-03T14:01:43;1.55;;;0.90;;
72085;SDS011;64750;52.134;5.424;2023-04-03T14:04:22;0.88;;;0.50;;
72085;SDS011;64750;52.134;5.424;2023-04-03T14:06:54;0.95;;;0.73;;
72085;SDS011;64750;52.134;5.424;2023-04-03T14:09:22;0.70;;;0.50;;
72085;SDS011;64750;52.134;5.424;2023-04-03T14:11:50;0.40;;;0.40;;
72085;SDS011;64750;52.134;5.424;2023-04-03T14:14:21;1.45;;;0.60;;
72085;SDS011;64750;52.134;5.424;2023-04-03T14:16:54;2.13;;;0.65;;
72085;SDS011;64750;52.134;5.424;2023-04-03T14:19:24;1.83;;;0.70;;
72085;SDS011;64750;52.134;5.424;2023-04-03T14:21:53;2.03;;;0.90;;
72085;SDS011;64750;52.134;5.424;2023-04-03T14:24:21;0.75;;;0.52;;
72085;SDS011;64750;52.134;5.424;2023-04-03T14:26:49;1.15;;;0.80;;
72085;SDS011;64750;52.134;5.424;2023-04-03T14:29:17;2.40;;;0.80;;
72085;SDS011;64750;52.134;5.424;2023-04-03T14:31:44;0.50;;;0.50;;
72085;SDS011;64750;52.134;5.424;2023-04-03T14:34:13;1.00;;;0.60;;
72085;SDS011;64750;52.134;5.424;2023-04-03T14:36:41;4.45;;;0.70;;
72085;SDS011;64750;52.134;5.424;2023-04-03T14:39:16;0.88;;;0.70;;
72085;SDS011;64750;52.134;5.424;2023-04-03T14:41:45;2.35;;;0.50;;
72085;SDS011;64750;52.134;5.424;2023-04-03T14:44:11;0.80;;;0.50;;
72085;SDS011;64750;52.134;5.424;2023-04-03T14:46:39;2.40;;;0.50;;
72085;SDS011;64750;52.134;5.424;2023-04-03T14:49:18;1.27;;;0.70;;
72085;SDS011;64750;52.134;5.424;2023-04-03T14:51:47;2.35;;;0.77;;
72085;SDS011;64750;52.134;5.424;2023-04-03T14:54:15;2.15;;;0.60;;
72085;SDS011;64750;52.134;5.424;2023-04-03T14:56:43;2.72;;;1.08;;
72085;SDS011;64750;52.134;5.424;2023-04-03T14:59:11;0.50;;;0.47;;
72085;SDS011;64750;52.134;5.424;2023-04-03T15:01:39;1.70;;;0.60;;
72085;SDS011;64750;52.134;5.424;2023-04-03T15:04:18;1.65;;;1.00;;
72085;SDS011;64750;52.134;5.424;2023-04-03T15:06:47;2.53;;;0.63;;
72085;SDS011;64750;52.134;5.424;2023-04-03T15:09:22;1.40;;;0.98;;
72085;SDS011;64750;52.134;5.424;2023-04-03T15:11:52;2.77;;;0.63;;
72085;SDS011;64750;52.134;5.424;2023-04-03T15:14:20;1.48;;;0.65;;
72085;SDS011;64750;52.134;5.424;2023-04-03T15:17:03;1.60;;;0.70;;
72085;SDS011;64750;52.134;5.424;2023-04-03T15:19:33;1.83;;;0.90;;
72085;SDS011;64750;52.134;5.424;2023-04-03T15:22:03;0.95;;;0.60;;
72085;SDS011;64750;52.134;5.424;2023-04-03T15:24:29;1.53;;;0.70;;
72085;SDS011;64750;52.134;5.424;2023-04-03T15:26:56;2.78;;;0.80;;
72085;SDS011;64750;52.134;5.424;2023-04-03T15:29:22;1.50;;;1.00;;
72085;SDS011;64750;52.134;5.424;2023-04-03T15:31:50;3.70;;;0.82;;
72085;SDS011;64750;52.134;5.424;2023-04-03T15:34:19;1.63;;;0.80;;
72085;SDS011;64750;52.134;5.424;2023-04-03T15:36:48;1.67;;;0.60;;
72085;SDS011;64750;52.134;5.424;2023-04-03T15:39:14;2.78;;;0.90;;
72085;SDS011;64750;52.134;5.424;2023-04-03T15:41:42;2.65;;;0.82;;
72085;SDS011;64750;52.134;5.424;2023-04-03T15:44:08;2.40;;;1.00;;
72085;SDS011;64750;52.134;5.424;2023-04-03T15:46:35;2.33;;;0.90;;
72085;SDS011;64750;52.134;5.424;2023-04-03T15:49:01;2.40;;;0.80;;
72085;SDS011;64750;52.134;5.424;2023-04-03T15:51:28;1.25;;;0.70;;
72085;SDS011;64750;52.134;5.424;2023-04-03T15:53:54;2.35;;;0.77;;
72085;SDS011;64750;52.134;5.424;2023-04-03T15:56:21;2.40;;;0.68;;
72085;SDS011;64750;52.134;5.424;2023-04-03T15:58:47;0.88;;;0.60;;
72085;SDS011;64750;52.134;5.424;2023-04-03T16:01:14;3.03;;;0.83;;
72085;SDS011;64750;52.134;5.424;2023-04-03T16:03:41;2.25;;;0.90;;
72085;SDS011;64750;52.134;5.424;2023-04-03T16:06:13;1.15;;;0.68;;
72085;SDS011;64750;52.134;5.424;2023-04-03T16:08:45;0.88;;;0.65;;
72085;SDS011;64750;52.134;5.424;2023-04-03T16:11:13;1.80;;;0.60;;
72085;SDS011;64750;52.134;5.424;2023-04-03T16:13:39;1.47;;;0.70;;
72085;SDS011;64750;52.134;5.424;2023-04-03T16:16:06;2.70;;;0.70;;
72085;SDS011;64750;52.134;5.424;2023-04-03T16:18:33;0.80;;;0.60;;
72085;SDS011;64750;52.134;5.424;2023-04-03T16:21:01;1.30;;;0.80;;
72085;SDS011;64750;52.134;5.424;2023-04-03T16:23:27;3.15;;;0.95;;
72085;SDS011;64750;52.134;5.424;2023-04-03T16:25:54;1.80;;;0.80;;
72085;SDS011;64750;52.134;5.424;2023-04-03T16:28:20;2.20;;;0.80;;